Latest Weather Observations for Cape Willoughby

IDS60801

Issued at 9:31 pm CST Thursday 28 May 2015 (issued every 30 minutes, with the page automatically refreshed every 10 minutes)

About weather observations | Map of weather stations | Latest weather observations for SA | Other Formats
Station Details ID: 022803 Name: CAPE WILLOUGHBY Lat: -35.84 Lon: 138.13 Height: 55.0 m
Data from the previous 72 hours. | See also: Recent months at Cape Willoughby
Date/Time
CST
Temp
°C
App
Temp
°C
Dew
Point
Rel
Hum
%
Delta-T
°C
Wind Press
QNH
hPa
Press
MSL
hPa
Rain
since 9 am
mm
Dir
 
Spd
km/h
Gust
km/h
Spd
kts
Gust
kts
28/09:30pm 11.4 6.5 8.4 82 1.5 W 24 30 13 16 1020.5 1020.4 9.2
28/09:00pm 11.8 7.4 8.8 82 1.5 W 22 30 12 16 1020.4 1020.3 9.2
28/08:30pm 11.8 7.9 9.4 85 1.2 WNW 20 26 11 14 1020.1 1020.0 9.2
28/08:00pm 11.7 7.8 9.4 86 1.2 WNW 20 24 11 13 1019.8 1019.8 9.2
28/07:30pm 12.2 8.6 9.8 85 1.2 W 19 24 10 13 1019.5 1019.5 9.2
28/07:00pm 12.3 9.1 10.0 86 1.2 WNW 17 19 9 10 1019.1 1019.1 9.2
28/06:30pm 12.7 9.6 10.2 85 1.3 W 17 20 9 11 1018.9 1018.9 9.2
28/06:00pm 13.2 9.6 10.6 84 1.4 W 20 24 11 13 1018.5 1018.5 9.2
28/05:30pm 13.4 10.0 11.3 87 1.1 WSW 20 30 11 16 1018.1 1018.1 9.2
28/05:00pm 13.2 9.4 11.3 88 1.0 WSW 22 32 12 17 1017.9 1017.9 9.2
28/04:30pm 13.5 8.9 11.2 86 1.2 WSW 26 33 14 18 1017.5 1017.5 9.2
28/04:00pm 14.0 10.4 11.7 86 1.2 WSW 22 33 12 18 1017.3 1017.3 9.2
28/03:30pm 13.7 8.0 11.2 85 1.3 WSW 32 41 17 22 1016.9 1016.9 9.2
28/03:00pm 13.9 8.9 12.1 89 1.0 WSW 30 41 16 22 1016.8 1016.8 9.0
28/02:30pm 13.9 9.6 11.9 88 1.1 WSW 26 41 14 22 1016.6 1016.6 9.0
28/02:00pm 14.0 7.6 11.9 87 1.1 W 37 50 20 27 1016.5 1016.5 9.0
28/01:52pm 14.3 8.4 11.3 82 1.6 W 33 48 18 26 1016.5 1016.5 9.0
28/01:30pm 15.2 10.3 12.7 85 1.4 WNW 30 41 16 22 1016.3 1016.3 9.0
28/01:10pm 14.3 8.1 12.5 89 1.0 W 37 56 20 30 1016.3 1016.3 9.0
28/01:00pm 14.5 8.3 11.5 82 1.6 W 35 48 19 26 1016.2 1016.2 8.4
28/12:55pm 16.9 11.4 12.6 76 2.4 WNW 33 43 18 23 1016.3 1016.3 8.4
28/12:30pm 16.5 9.2 12.7 78 2.1 NW 43 52 23 28 1015.9 1015.9 8.4
28/12:02pm 16.1 10.3 12.8 81 1.8 NW 35 59 19 32 1016.3 1016.3 8.4
28/12:00pm 16.1 10.8 13.0 82 1.7 NW 33 50 18 27 1016.4 1016.4 8.4
28/11:30am 15.9 9.9 13.4 85 1.4 NW 37 48 20 26 1016.7 1016.7 8.2
28/11:00am 15.8 10.6 13.5 86 1.3 NW 33 50 18 27 1017.2 1017.2 8.2
28/10:30am 14.6 10.2 13.0 90 0.9 NW 28 35 15 19 1017.3 1017.3 8.2
28/10:00am 14.7 10.5 13.4 92 0.7 NW 28 39 15 21 1017.6 1017.6 8.2
28/09:30am 13.7 9.3 11.8 88 1.0 WNW 26 48 14 26 1017.4 1017.4 6.2
28/09:29am 14.1 9.9 12.5 90 0.9 NW 26 48 14 26 1017.4 1017.4 6.0
28/09:00am 15.0 10.1 13.7 92 0.7 NW 32 43 17 23 1017.2 1017.2 2.8
28/08:30am 14.6 10.8 13.5 93 0.6 NW 26 35 14 19 1017.3 1017.3 0.8
28/08:00am 14.5 9.5 13.4 93 0.6 NNW 32 43 17 23 1016.8 1016.8 0.6
28/07:30am 14.1 9.3 12.8 92 0.7 NW 30 37 16 20 1016.8 1016.8 0.6
28/07:00am 13.6 9.3 12.2 91 0.8 NW 26 33 14 18 1016.7 1016.7 0.6
28/06:30am 13.3 10.0 11.7 90 0.9 NW 20 26 11 14 1016.6 1016.6 0.6
28/06:00am 13.7 10.2 12.1 90 0.9 WNW 22 26 12 14 1016.3 1016.3 0.6
28/05:30am 14.3 11.0 12.9 91 0.8 NW 22 26 12 14 1016.2 1016.2 0.6
28/05:00am 14.8 10.9 13.2 90 0.9 NW 26 32 14 17 1015.9 1015.9 0.2
28/04:30am 14.5 10.9 13.2 92 0.7 NW 24 33 13 18 1016.0 1016.0 0.2
28/04:00am 14.4 10.9 13.3 93 0.6 NW 24 32 13 17 1016.1 1016.1 0.2
28/03:30am 14.3 10.7 13.2 93 0.6 NW 24 30 13 16 1016.1 1016.1 0.2
28/03:00am 14.3 10.7 13.0 92 0.7 NW 24 30 13 16 1016.5 1016.5 0.2
28/02:30am 14.7 10.4 13.2 91 0.8 NW 28 35 15 19 1016.5 1016.5 0.2
28/02:00am 14.8 10.5 13.3 91 0.8 NW 28 35 15 19 1016.7 1016.7 0.2
28/01:30am 14.7 10.4 13.2 91 0.8 NW 28 33 15 18 1016.8 1016.8 0.2
28/01:00am 14.8 10.5 13.2 90 0.9 NW 28 37 15 20 1016.6 1016.6 0.2
28/12:30am 14.7 11.1 13.2 91 0.8 NW 24 30 13 16 1016.7 1016.7 0.2
28/12:00am 15.0 12.0 13.7 92 0.7 NW 22 32 12 17 1016.8 1016.8 0.2
 
Date/Time
CST
Temp
°C
App
Temp
°C
Dew
Point
Rel
Hum
%
Delta-T
°C
Wind Press
QNH
hPa
Press
MSL
hPa
Rain
since 9 am
mm
Dir
 
Spd
km/h
Gust
km/h
Spd
kts
Gust
kts
27/11:30pm 14.9 11.5 13.8 93 0.6 NNW 24 30 13 16 1017.0 1017.0 0.2
27/11:00pm 14.9 10.1 13.9 94 0.6 NNW 32 39 17 21 1017.0 1017.0 0.2
27/10:30pm 14.9 10.4 13.9 94 0.6 NNW 30 37 16 20 1017.1 1017.1 0.2
27/10:00pm 14.8 11.1 13.8 94 0.6 NNW 26 33 14 18 1017.5 1017.5 0.2
27/09:30pm 14.8 12.8 13.8 94 0.6 NNW 17 22 9 12 1017.6 1017.6 0.2
27/09:00pm 15.0 13.0 14.0 94 0.6 NNW 17 22 9 12 1017.7 1017.7 0.2
27/08:30pm 15.0 13.0 14.0 94 0.6 NNW 17 22 9 12 1017.8 1017.8 0.2
27/08:00pm 15.0 12.5 14.0 94 0.6 NW 20 28 11 15 1017.8 1017.8 0.0
27/07:30pm 15.0 12.7 14.0 94 0.6 NNW 19 24 10 13 1017.7 1017.7 0.0
27/07:00pm 15.1 12.8 14.1 94 0.6 NW 19 24 10 13 1017.7 1017.7 0.0
27/06:30pm 15.1 12.8 14.0 93 0.6 NNW 19 24 10 13 1017.6 1017.6 0.0
27/06:00pm 15.4 12.1 14.1 92 0.7 NW 24 33 13 18 1017.6 1017.6 0.0
27/05:30pm 15.5 13.2 14.2 92 0.7 NNW 19 24 10 13 1017.4 1017.4 0.0
27/05:00pm 15.5 13.5 14.0 91 0.8 NNW 17 24 9 13 1017.4 1017.4 0.0
27/04:30pm 15.7 12.4 14.1 90 0.9 NNW 24 32 13 17 1017.3 1017.3 0.0
27/04:00pm 15.9 12.6 14.1 89 1.0 NNW 24 35 13 19 1017.3 1017.3 0.0
27/03:30pm 15.6 13.2 14.3 92 0.7 NNW 20 28 11 15 1017.4 1017.4 0.0
27/03:00pm 15.3 10.2 13.8 91 0.8 NNW 33 43 18 23 1017.2 1017.2 0.0
27/02:30pm 15.1 9.9 13.5 90 0.9 NNW 33 46 18 25 1017.4 1017.4 0.0
27/02:00pm 15.2 8.9 13.4 89 1.0 NNW 39 50 21 27 1017.2 1017.2 0.0
27/01:30pm 15.2 9.7 13.6 90 0.9 NNW 35 46 19 25 1017.5 1017.5 0.0
27/01:00pm 15.2 9.7 13.6 90 0.9 NNW 35 48 19 26 1017.7 1017.7 0.0
27/12:30pm 15.1 9.9 13.3 89 1.0 NNW 33 44 18 24 1018.3 1018.3 0.0
27/12:00pm 15.5 8.8 13.5 88 1.1 NNW 41 48 22 26 1018.4 1018.4 0.0
27/11:30am 16.1 11.1 14.1 88 1.1 NNW 33 46 18 25 1019.0 1019.0 0.0
27/11:00am 15.6 10.1 13.6 88 1.1 NNW 35 44 19 24 1019.6 1019.6 0.0
27/10:30am 15.7 9.0 13.5 87 1.2 NNW 41 54 22 29 1019.3 1019.3 0.0
27/10:00am 15.3 9.1 13.7 90 0.9 NNW 39 50 21 27 1019.1 1019.1 0.0
27/09:30am 15.2 8.6 13.7 91 0.8 NNW 41 50 22 27 1019.1 1019.1 0.0
27/09:00am 15.0 8.0 13.7 92 0.7 NNW 43 50 23 27 1018.8 1018.8 0.0
27/08:30am 14.9 9.0 13.6 92 0.7 NNW 37 44 20 24 1018.9 1018.9 0.0
27/08:15am 14.8 9.9 13.7 93 0.6 NNW 32 50 17 27 1018.9 1018.9 0.0
27/08:00am 14.7 10.1 13.6 93 0.6 NNW 30 39 16 21 1019.1 1019.1 0.0
27/07:30am 14.5 8.9 13.4 93 0.6 NNW 35 44 19 24 1018.4 1018.4 0.0
27/07:00am 14.2 9.1 13.1 93 0.6 NNW 32 41 17 22 1018.2 1018.2 0.0
27/06:30am 14.0 8.8 12.7 92 0.7 NW 32 44 17 24 1018.2 1018.2 0.0
27/06:00am 14.0 8.6 12.7 92 0.7 NW 33 41 18 22 1017.7 1017.7 0.0
27/05:30am 13.8 8.5 12.5 92 0.7 NW 32 39 17 21 1017.6 1017.6 0.0
27/05:00am 13.8 8.9 12.4 91 0.8 NW 30 35 16 19 1017.8 1017.8 0.0
27/04:30am 14.0 8.6 12.2 89 1.0 NW 32 41 17 22 1017.9 1017.9 0.0
27/04:00am 13.9 9.2 12.1 89 1.0 NNW 28 35 15 19 1018.0 1018.0 0.0
27/03:30am 13.9 9.9 11.8 87 1.1 NW 24 30 13 16 1018.4 1018.4 0.0
27/03:00am 14.2 9.4 11.7 85 1.3 NW 28 33 15 18 1018.7 1018.7 0.0
27/02:30am 14.4 10.3 11.6 83 1.5 NW 24 33 13 18 1018.8 1018.8 0.0
27/02:00am 14.6 9.7 12.5 87 1.1 NNW 30 37 16 20 1018.9 1018.9 0.0
27/01:30am 14.6 9.8 12.8 89 1.0 NNW 30 39 16 21 1018.8 1018.8 0.0
27/01:00am 14.7 9.4 13.2 91 0.8 NNW 33 43 18 23 1018.9 1018.9 0.0
27/12:30am 14.8 9.4 12.8 88 1.1 NNW 33 41 18 22 1019.1 1019.1 0.0
27/12:00am 14.6 10.0 12.3 86 1.3 NNW 28 35 15 19 1019.5 1019.5 0.0
 
Date/Time
CST
Temp
°C
App
Temp
°C
Dew
Point
Rel
Hum
%
Delta-T
°C
Wind Press
QNH
hPa
Press
MSL
hPa
Rain
since 9 am
mm
Dir
 
Spd
km/h
Gust
km/h
Spd
kts
Gust
kts
26/11:30pm 14.2 10.9 11.7 85 1.3 NNW 20 24 11 13 1019.8 1019.8 0.0
26/11:00pm 14.2 10.0 11.2 82 1.6 NW 24 28 13 15 1019.8 1019.8 0.0
26/10:30pm 14.9 10.4 11.3 79 1.9 NW 26 32 14 17 1019.8 1019.8 0.0
26/10:00pm 15.4 9.8 12.2 81 1.7 NNW 33 43 18 23 1020.1 1020.0 0.0
26/09:30pm 15.3 10.6 12.1 81 1.7 NNW 28 37 15 20 1020.6 1020.5 0.0
26/09:00pm 14.9 12.0 10.9 77 2.1 NNW 17 20 9 11 1020.8 1020.7 0.0
26/08:30pm 14.6 12.2 10.2 75 2.3 NNW 13 15 7 8 1020.8 1020.7 0.0
26/08:00pm 14.1 12.0 9.9 76 2.2 NNW 11 11 6 6 1020.9 1020.8 0.0
26/07:30pm 14.5 12.5 10.3 76 2.2 NNW 11 13 6 7 1021.0 1020.9 0.0
26/07:00pm 14.7 12.5 10.7 77 2.1 NNW 13 15 7 8 1020.8 1020.7 0.0
26/06:30pm 14.9 13.1 10.7 76 2.2 NNW 11 13 6 7 1020.8 1020.7 0.0
26/06:00pm 15.2 13.4 10.8 75 2.3 NNW 11 13 6 7 1020.9 1020.8 0.0
26/05:30pm 15.1 12.8 10.5 74 2.4 NNW 13 15 7 8 1020.8 1020.7 0.0
26/05:00pm 15.6 14.0 11.4 76 2.3 NNW 11 17 6 9 1020.8 1020.7 0.0
26/04:30pm 16.5 15.4 12.1 75 2.4 N 9 13 5 7 1020.8 1020.7 0.0
26/04:00pm 16.1 15.6 12.7 80 1.9 N 7 7 4 4 1020.9 1020.8 0.0
26/03:30pm 16.0 15.7 12.6 80 1.9 NE 6 9 3 5 1020.9 1020.8 0.0
26/03:00pm 16.2 14.7 13.1 82 1.7 N 13 15 7 8 1021.0 1020.9 0.0
26/02:30pm 16.6 13.9 12.9 79 2.1 N 19 24 10 13 1021.0 1020.9 0.0
26/02:00pm 17.3 13.7 12.0 71 2.9 NNW 22 28 12 15 1021.4 1021.3 0.0
26/01:30pm 17.6 14.0 11.9 69 3.1 NNW 22 26 12 14 1021.8 1021.7 0.0
26/01:00pm 18.0 13.6 12.9 72 2.9 NNW 28 32 15 17 1022.3 1022.2 0.0
26/12:30pm 18.3 14.5 12.5 69 3.2 NNW 24 26 13 14 1022.6 1022.5 0.0
26/12:00pm 17.1 14.0 12.2 73 2.7 NNW 20 24 11 13 1023.2 1023.1 0.0
26/11:30am 16.5 15.8 13.2 81 1.8 N 9 11 5 6 1023.7 1023.6 0.0
26/11:00am 16.2 14.9 12.4 78 2.1 N 11 15 6 8 1024.1 1024.0 0.0
26/10:30am 17.1 14.3 12.6 75 2.5 NNW 19 24 10 13 1024.3 1024.2 0.0
26/10:00am 16.0 13.4 12.0 77 2.2 N 17 19 9 10 1024.7 1024.6 0.0
26/09:30am 15.7 14.4 12.5 81 1.8 N 11 15 6 8 1025.0 1024.9 0.0
26/09:00am 15.6 15.1 12.7 83 1.6 N 7 7 4 4 1024.8 1024.7 0.0
26/08:30am 15.0 14.3 12.1 83 1.6 N 7 9 4 5 1025.1 1025.0 0.0
26/08:00am 14.9 14.4 12.0 83 1.6 N 6 7 3 4 1025.1 1025.0 0.0
26/07:30am 14.9 14.4 12.2 84 1.5 NNE 6 7 3 4 1025.1 1025.0 0.0
26/07:00am 14.8 14.4 12.5 86 1.3 N 6 7 3 4 1025.0 1024.9 0.0
26/06:30am 14.8 14.3 12.7 87 1.1 N 7 9 4 5 1024.9 1024.8 0.0
26/06:00am 14.9 13.7 12.8 87 1.2 NNE 11 13 6 7 1024.8 1024.7 0.0
26/05:30am 14.8 13.2 12.7 87 1.1 NNE 13 15 7 8 1024.8 1024.7 0.0
26/05:00am 14.6 13.6 12.3 86 1.3 NNE 9 9 5 5 1024.8 1024.7 0.0
26/04:30am 14.6 13.9 11.9 84 1.5 NE 7 9 4 5 1025.0 1024.9 0.0
26/04:00am 14.6 14.0 11.7 83 1.6 NE 6 9 3 5 1025.2 1025.1 0.0
26/03:30am 14.6 13.8 11.6 82 1.6 NE 7 11 4 6 1025.2 1025.1 0.0
26/03:00am 14.5 12.5 11.5 82 1.6 NE 13 17 7 9 1025.4 1025.3 0.0
26/02:30am 14.5 12.1 11.5 82 1.6 NNE 15 20 8 11 1025.6 1025.5 0.0
26/02:00am 14.4 12.8 11.7 84 1.5 NNE 11 15 6 8 1025.9 1025.9 0.0
26/01:30am 14.4 12.5 11.7 84 1.4 NE 13 17 7 9 1025.9 1025.9 0.0
26/01:00am 14.5 13.0 11.8 84 1.5 NE 11 13 6 7 1026.1 1026.1 0.0
26/12:30am 14.5 13.6 12.5 88 1.1 ENE 9 11 5 6 1026.3 1026.3 0.0
26/12:00am 14.6 13.3 12.6 88 1.1 ENE 11 13 6 7 1026.5 1026.5 0.0
 
Date/Time
CST
Temp
°C
App
Temp
°C
Dew
Point
Rel
Hum
%
Delta-T
°C
Wind Press
QNH
hPa
Press
MSL
hPa
Rain
since 9 am
mm
Dir
 
Spd
km/h
Gust
km/h
Spd
kts
Gust
kts
25/11:30pm 14.7 13.4 12.6 87 1.1 E 11 13 6 7 1027.0 1027.0 0.0
25/11:00pm 14.6 13.3 12.5 87 1.1 E 11 13 6 7 1027.2 1027.2 0.0
25/10:30pm 14.6 13.5 11.9 84 1.5 E 9 11 5 6 1027.5 1027.5 0.0
25/10:00pm 14.6 13.2 11.0 79 1.9 ENE 9 13 5 7 1027.5 1027.5 0.0

Other Formats:

Comma delimited format used in spreadsheet applications
http://www.bom.gov.au/fwo/IDS60801/IDS60801.94822.axf

JavaScript Object Notation format (JSON) in row-major order
http://www.bom.gov.au/fwo/IDS60801/IDS60801.94822.json